Time;durP1;ratioP1;P1;durP2;ratioP2;P2;SDS_P1;SDS_P2;PMS_P1;PMS_P2;Temp;Humidity;BMP_temperature;BMP_pressure;BME280_temperature;BME280_humidity;BME280_pressure;Samples;Min_cycle;Max_cycle;Signal;HPM_P1;HPM_P2
2023/07/20 00:00:30;;;;;;;8.30;5.70;;;;;;;17.48;74.83;97159.94;107337;1275;25464;-82
2023/07/20 00:03:18;;;;;;;9.20;7.00;;;;;;;17.52;76.11;97156.72;107287;1275;25234;-83
2023/07/20 00:05:47;;;;;;;10.60;7.20;;;;;;;17.41;76.28;97163.92;107376;1275;22673;-83
2023/07/20 00:08:16;;;;;;;8.70;6.90;;;;;;;17.21;77.02;97169.23;107314;1275;22618;-83
2023/07/20 00:10:44;;;;;;;12.20;7.20;;;;;;;17.07;77.38;97167.17;107332;1275;22558;-82
2023/07/20 00:13:12;;;;;;;8.50;6.50;;;;;;;17.03;76.80;97171.13;107251;1275;22562;-83
2023/07/20 00:15:40;;;;;;;10.90;6.60;;;;;;;17.04;76.43;97167.72;107269;1275;25282;-83
2023/07/20 00:18:08;;;;;;;10.20;6.80;;;;;;;17.03;76.55;97161.57;107264;1276;22540;-83
2023/07/20 00:20:36;;;;;;;8.30;7.40;;;;;;;17.10;76.31;97171.58;107216;1275;22527;-83
2023/07/20 00:23:05;;;;;;;10.30;7.50;;;;;;;17.02;76.95;97174.52;107327;1275;25233;-82
2023/07/20 00:25:33;;;;;;;10.70;7.60;;;;;;;16.92;77.28;97180.48;107297;1276;22577;-83
2023/07/20 00:28:01;;;;;;;10.70;7.10;;;;;;;16.87;77.89;97174.38;107208;1275;186442;-83
2023/07/20 00:30:29;;;;;;;10.60;7.60;;;;;;;16.88;78.01;97180.37;107109;1275;23863;-83
2023/07/20 00:32:57;;;;;;;15.00;8.60;;;;;;;16.88;78.07;97184.75;107292;1275;22663;-84
2023/07/20 00:35:25;;;;;;;11.60;9.00;;;;;;;16.92;77.90;97189.25;106978;1276;22548;-83
2023/07/20 00:37:54;;;;;;;11.00;8.50;;;;;;;17.00;77.62;97187.23;107192;1275;22550;-83
2023/07/20 00:40:22;;;;;;;11.30;9.00;;;;;;;17.08;77.38;97192.77;107285;1275;22517;-82
2023/07/20 00:42:50;;;;;;;12.30;9.00;;;;;;;17.14;77.31;97204.32;107232;1275;22654;-83
2023/07/20 00:45:25;;;;;;;14.20;9.20;;;;;;;17.18;77.35;97210.70;107280;1275;22712;-83
2023/07/20 00:47:53;;;;;;;15.90;8.70;;;;;;;17.25;77.71;97217.86;107300;1275;22529;-83
2023/07/20 00:50:22;;;;;;;12.30;9.80;;;;;;;17.32;78.09;97225.38;107205;1275;23928;-83
2023/07/20 00:52:50;;;;;;;11.60;9.70;;;;;;;17.38;78.65;97234.27;107288;1275;22573;-82
2023/07/20 00:55:19;;;;;;;15.30;10.80;;;;;;;17.41;79.50;97239.77;107248;1275;22516;-83
2023/07/20 00:57:47;;;;;;;13.50;10.40;;;;;;;17.41;80.10;97242.80;107099;1275;22529;-82
2023/07/20 01:00:16;;;;;;;13.40;9.70;;;;;;;17.46;81.05;97251.55;107329;1275;25348;-82
2023/07/20 01:02:45;;;;;;;11.00;9.50;;;;;;;17.51;82.02;97246.59;107322;1275;22520;-82
2023/07/20 01:05:16;;;;;;;12.30;8.90;;;;;;;17.60;82.40;97253.23;107292;1275;22529;-82
2023/07/20 01:08:07;;;;;;;16.00;9.40;;;;;;;17.65;81.45;97254.95;107238;1276;22614;-82
2023/07/20 01:10:35;;;;;;;12.30;8.30;;;;;;;17.70;81.93;97252.17;107151;1276;24231;-84
2023/07/20 01:13:06;;;;;;;14.10;8.80;;;;;;;17.77;81.72;97254.27;107136;1276;24426;-84
2023/07/20 01:15:34;;;;;;;12.00;8.00;;;;;;;17.85;81.20;97248.56;107220;1275;24266;-85
2023/07/20 01:18:04;;;;;;;9.00;6.80;;;;;;;17.92;80.37;97250.41;107350;1275;24242;-85
2023/07/20 01:20:34;;;;;;;10.50;7.40;;;;;;;17.98;79.32;97242.97;107221;1275;22534;-83
2023/07/20 01:23:27;;;;;;;10.80;7.30;;;;;;;18.06;78.89;97242.23;107276;1275;22524;-82
2023/07/20 01:26:09;;;;;;;9.60;7.30;;;;;;;18.11;77.68;97239.14;107283;1275;22531;-83
2023/07/20 01:29:29;;;;;;;8.20;6.20;;;;;;;18.15;77.04;97238.48;107326;1275;22734;-83
2023/07/20 01:32:00;;;;;;;10.80;6.90;;;;;;;18.20;76.26;97231.96;106866;1282;24321;-82
2023/07/20 01:34:30;;;;;;;9.10;6.00;;;;;;;18.22;75.98;97235.02;106804;1282;23447;-85
2023/07/20 01:37:00;;;;;;;10.50;6.00;;;;;;;18.21;75.25;97237.50;106776;1281;25339;-82
2023/07/20 01:39:29;;;;;;;9.20;5.90;;;;;;;18.18;75.42;97231.54;106777;1281;22535;-81
2023/07/20 01:41:57;;;;;;;12.00;5.50;;;;;;;18.15;75.40;97219.72;106863;1282;22631;-81
2023/07/20 01:44:25;;;;;;;9.00;5.90;;;;;;;18.11;75.26;97211.25;106885;1282;23027;-81
2023/07/20 01:46:53;;;;;;;7.90;5.20;;;;;;;18.09;75.05;97199.92;106775;1281;22543;-81
2023/07/20 01:49:21;;;;;;;9.80;5.30;;;;;;;18.07;75.25;97190.77;106765;1282;24198;-81
2023/07/20 01:51:49;;;;;;;8.80;5.50;;;;;;;18.05;74.95;97194.48;106791;1282;22605;-81
2023/07/20 01:54:17;;;;;;;8.80;4.80;;;;;;;18.01;75.09;97195.20;106709;1282;22540;-81
2023/07/20 01:56:46;;;;;;;8.00;5.10;;;;;;;17.95;75.09;97198.14;106720;1282;25329;-81
2023/07/20 01:59:14;;;;;;;7.40;5.60;;;;;;;17.86;75.24;97199.30;106673;1282;23021;-81
2023/07/20 02:01:42;;;;;;;7.80;4.70;;;;;;;17.79;75.28;97193.73;106726;1282;22791;-80
2023/07/20 02:04:12;;;;;;;6.00;4.90;;;;;;;17.70;75.54;97198.61;106710;1282;24257;-81
2023/07/20 02:06:40;;;;;;;9.60;5.30;;;;;;;17.64;75.85;97195.39;106714;1282;22650;-80
2023/07/20 02:09:08;;;;;;;8.20;5.80;;;;;;;17.62;76.31;97195.66;107177;1275;25279;-80
2023/07/20 02:11:36;;;;;;;7.00;5.50;;;;;;;17.56;76.77;97199.61;107229;1275;22526;-80
2023/07/20 02:14:04;;;;;;;9.50;4.80;;;;;;;17.46;77.54;97197.02;107195;1275;25463;-81
2023/07/20 02:16:32;;;;;;;6.50;4.20;;;;;;;17.36;78.23;97191.84;107225;1264;23198;-80
2023/07/20 02:19:00;;;;;;;10.30;4.50;;;;;;;17.33;78.23;97194.58;107224;1275;22534;-80
2023/07/20 02:21:28;;;;;;;8.70;4.90;;;;;;;17.28;78.29;97205.77;107150;1275;22584;-80
2023/07/20 02:23:56;;;;;;;11.80;4.60;;;;;;;17.21;78.08;97209.67;107108;1275;23177;-80
2023/07/20 02:26:24;;;;;;;7.30;5.00;;;;;;;17.17;77.79;97208.35;107243;1275;22606;-80
2023/07/20 02:28:52;;;;;;;6.90;5.50;;;;;;;17.13;78.41;97204.30;107131;1275;22754;-80
2023/07/20 02:31:20;;;;;;;6.80;5.20;;;;;;;17.10;78.61;97202.85;107275;1275;24350;-79
2023/07/20 02:33:49;;;;;;;8.00;5.80;;;;;;;17.09;78.68;97205.08;107205;1275;23090;-79
2023/07/20 02:36:17;;;;;;;6.60;5.10;;;;;;;17.10;78.35;97209.69;107160;1275;22548;-78
2023/07/20 02:38:46;;;;;;;11.20;5.10;;;;;;;17.08;78.86;97217.19;106967;1275;23148;-79
2023/07/20 02:41:14;;;;;;;11.00;5.90;;;;;;;17.03;79.40;97217.10;106852;1275;22517;-79
2023/07/20 02:43:42;;;;;;;8.40;4.80;;;;;;;17.02;78.97;97221.12;107038;1253;25791;-79
2023/07/20 02:46:10;;;;;;;9.90;5.90;;;;;;;17.05;79.78;97221.55;106873;1275;25259;-79
2023/07/20 02:48:38;;;;;;;8.80;5.70;;;;;;;17.03;80.22;97225.41;107171;1275;22543;-80
2023/07/20 02:51:07;;;;;;;10.10;6.40;;;;;;;17.00;80.06;97238.96;107108;1275;25307;-81
2023/07/20 02:53:36;;;;;;;9.20;6.20;;;;;;;16.97;80.59;97247.70;107201;1275;22671;-80
2023/07/20 02:56:04;;;;;;;11.00;5.50;;;;;;;16.96;80.95;97248.04;107110;1275;22524;-81
2023/07/20 02:58:36;;;;;;;10.30;5.70;;;;;;;16.95;81.84;97249.10;107108;1275;24455;-80
2023/07/20 03:01:05;;;;;;;8.20;5.90;;;;;;;16.93;81.32;97253.10;107240;1275;25278;-80
2023/07/20 03:03:38;;;;;;;7.70;5.80;;;;;;;16.91;81.86;97253.14;107243;1275;25380;-80
2023/07/20 03:06:08;;;;;;;8.60;5.80;;;;;;;16.88;82.62;97254.09;107235;1275;25252;-81
2023/07/20 03:08:36;;;;;;;8.80;5.60;;;;;;;16.84;82.90;97251.89;107209;1275;22527;-81
2023/07/20 03:11:04;;;;;;;12.10;6.10;;;;;;;16.80;83.10;97247.48;107250;1275;22796;-81
2023/07/20 03:13:32;;;;;;;10.50;5.70;;;;;;;16.73;83.35;97231.44;107239;1275;25288;-81
2023/07/20 03:16:00;;;;;;;12.50;5.70;;;;;;;16.69;83.45;97235.30;107140;1275;22527;-80
2023/07/20 03:18:29;;;;;;;8.70;5.70;;;;;;;16.62;84.13;97248.44;106889;1275;22532;-81
2023/07/20 03:20:57;;;;;;;9.40;5.70;;;;;;;16.59;84.47;97253.50;107132;1275;24385;-81
2023/07/20 03:23:26;;;;;;;8.60;5.40;;;;;;;16.51;84.53;97264.34;107117;1275;22637;-80
2023/07/20 03:25:55;;;;;;;10.00;5.50;;;;;;;16.45;85.01;97268.70;107170;1275;23289;-81
2023/07/20 03:28:23;;;;;;;8.80;5.20;;;;;;;16.33;85.79;97262.04;107247;1275;22534;-81
2023/07/20 03:30:56;;;;;;;9.90;5.70;;;;;;;16.24;86.36;97257.40;107202;1275;23900;-82
2023/07/20 03:33:27;;;;;;;10.80;5.30;;;;;;;16.20;86.26;97257.70;107211;1275;23006;-82
2023/07/20 03:35:56;;;;;;;10.80;5.30;;;;;;;16.14;86.53;97259.16;107282;1275;22607;-81
2023/07/20 03:38:27;;;;;;;9.50;5.80;;;;;;;16.07;86.61;97266.23;107249;1275;22623;-81
2023/07/20 03:40:57;;;;;;;23.90;5.90;;;;;;;16.01;87.14;97272.53;107028;1255;22537;-81
2023/07/20 03:43:27;;;;;;;9.00;4.90;;;;;;;15.97;87.57;97268.55;107217;1275;22575;-81
2023/07/20 03:45:56;;;;;;;9.10;4.80;;;;;;;15.96;87.46;97280.55;107274;1275;25301;-81
2023/07/20 03:48:25;;;;;;;9.80;5.50;;;;;;;15.94;87.69;97284.52;107262;1275;22543;-81
2023/07/20 03:50:54;;;;;;;11.50;5.70;;;;;;;15.90;88.66;97285.84;107200;1275;22529;-81
2023/07/20 03:53:22;;;;;;;9.10;6.10;;;;;;;15.84;88.82;97286.45;107151;1275;26583;-81
2023/07/20 03:55:51;;;;;;;9.60;5.50;;;;;;;15.82;88.60;97300.75;107212;1265;22524;-81
2023/07/20 03:58:21;;;;;;;10.20;5.50;;;;;;;15.83;88.67;97313.35;107282;1275;22529;-81
2023/07/20 04:00:51;;;;;;;10.50;6.30;;;;;;;15.81;89.34;97323.22;107311;1275;24262;-81
2023/07/20 04:03:20;;;;;;;10.30;5.60;;;;;;;15.78;88.39;97324.16;107465;1275;22570;-81
2023/07/20 04:05:48;;;;;;;9.20;5.20;;;;;;;15.79;88.47;97322.93;107391;1275;23092;-79
2023/07/20 04:08:17;;;;;;;11.70;6.10;;;;;;;15.78;89.21;97327.73;107239;1275;24232;-82
2023/07/20 04:10:45;;;;;;;12.20;5.80;;;;;;;15.78;89.56;97332.84;107244;1275;25269;-78
2023/07/20 04:13:13;;;;;;;10.70;6.20;;;;;;;15.79;88.88;97339.62;107179;1275;24213;-77
2023/07/20 04:15:42;;;;;;;8.90;6.70;;;;;;;15.79;88.84;97347.02;107147;1275;22671;-78
2023/07/20 04:18:10;;;;;;;9.60;6.60;;;;;;;15.80;88.86;97348.41;107143;1275;22569;-79
2023/07/20 04:20:38;;;;;;;8.80;6.20;;;;;;;15.79;89.31;97343.59;107138;1275;24451;-79
2023/07/20 04:23:06;;;;;;;13.20;7.60;;;;;;;15.79;89.51;97343.20;106858;1275;22544;-79
2023/07/20 04:25:38;;;;;;;16.80;6.90;;;;;;;15.80;89.75;97346.17;107171;1275;22517;-80
2023/07/20 04:28:09;;;;;;;9.80;7.20;;;;;;;15.78;89.58;97357.45;107298;1275;22599;-80
2023/07/20 04:30:42;;;;;;;11.30;6.60;;;;;;;15.78;89.62;97356.97;106863;1273;25322;-78
2023/07/20 04:33:10;;;;;;;13.80;7.50;;;;;;;15.74;89.57;97355.40;106882;1276;24418;-77
2023/07/20 04:35:52;;;;;;;11.60;5.90;;;;;;;15.68;89.70;97360.21;106819;1275;25463;-77
2023/07/20 04:38:33;;;;;;;12.40;6.70;;;;;;;15.66;89.36;97370.05;106859;1276;22590;-81
2023/07/20 04:41:14;;;;;;;13.90;6.80;;;;;;;15.66;89.65;97379.13;107342;1275;22518;-82
2023/07/20 04:43:45;;;;;;;14.20;6.60;;;;;;;15.62;89.59;97381.04;107258;1275;22665;-82
2023/07/20 04:46:19;;;;;;;9.30;6.40;;;;;;;15.61;89.06;97387.67;107249;1276;25275;-78
2023/07/20 04:48:47;;;;;;;12.10;6.70;;;;;;;15.67;88.60;97386.86;107292;1275;22918;-77
2023/07/20 04:51:20;;;;;;;14.40;7.60;;;;;;;15.73;89.57;97383.77;107236;1275;23289;-76
2023/07/20 04:53:51;;;;;;;14.10;7.50;;;;;;;15.73;89.30;97369.04;107070;1275;24231;-78
2023/07/20 04:56:19;;;;;;;11.60;6.80;;;;;;;15.74;88.92;97379.54;106863;1275;22612;-77
2023/07/20 04:58:47;;;;;;;11.30;6.40;;;;;;;15.77;88.92;97383.48;107191;1275;22981;-76
2023/07/20 05:01:16;;;;;;;13.60;6.50;;;;;;;15.79;88.91;97374.48;106837;1275;23175;-76
2023/07/20 05:03:44;;;;;;;9.80;7.20;;;;;;;15.87;88.52;97354.75;106662;1275;25342;-76
2023/07/20 05:06:12;;;;;;;10.20;6.60;;;;;;;16.01;88.27;97345.89;106849;1275;25255;-77
2023/07/20 05:08:41;;;;;;;8.50;5.70;;;;;;;16.13;88.70;97357.77;107182;1275;24177;-77
2023/07/20 05:11:09;;;;;;;7.50;5.60;;;;;;;16.16;88.51;97373.60;107177;1275;22597;-78
2023/07/20 05:13:37;;;;;;;10.20;6.10;;;;;;;16.21;88.24;97370.02;107166;1275;25310;-77
2023/07/20 05:16:05;;;;;;;9.40;5.40;;;;;;;16.27;88.02;97368.70;107172;1275;24245;-77
2023/07/20 05:18:34;;;;;;;12.20;5.60;;;;;;;16.30;87.99;97363.48;106824;1275;22524;-77
2023/07/20 05:21:02;;;;;;;8.90;6.30;;;;;;;16.36;88.01;97366.22;106871;1265;25393;-77
2023/07/20 05:23:30;;;;;;;8.20;6.00;;;;;;;16.39;87.69;97367.06;107105;1275;22535;-77
2023/07/20 05:25:59;;;;;;;8.00;5.30;;;;;;;16.37;87.56;97365.91;106830;1275;22524;-77
2023/07/20 05:28:27;;;;;;;8.20;6.00;;;;;;;16.39;87.62;97362.94;107140;1264;22535;-77
2023/07/20 05:30:55;;;;;;;10.80;5.50;;;;;;;16.50;87.42;97361.13;107164;1264;23953;-77
2023/07/20 05:33:23;;;;;;;11.10;6.10;;;;;;;16.59;87.17;97364.14;107262;1275;22559;-77
2023/07/20 05:35:51;;;;;;;9.20;5.50;;;;;;;16.63;87.20;97369.62;107181;1275;22716;-77
2023/07/20 05:38:19;;;;;;;11.00;5.70;;;;;;;16.68;87.02;97373.70;107263;1275;22681;-77
2023/07/20 05:40:48;;;;;;;14.30;5.40;;;;;;;16.70;86.79;97377.79;106948;1275;22618;-79
2023/07/20 05:43:15;;;;;;;12.40;5.80;;;;;;;16.74;86.77;97371.36;107223;1275;23298;-77
2023/07/20 05:45:45;;;;;;;6.70;4.30;;;;;;;16.81;86.57;97372.65;107182;1275;22540;-75
2023/07/20 05:48:13;;;;;;;9.60;5.40;;;;;;;16.97;87.13;97369.36;106912;1275;25677;-77
2023/07/20 05:50:44;;;;;;;9.60;4.80;;;;;;;17.11;86.48;97361.98;107159;1275;25332;-77
2023/07/20 05:53:12;;;;;;;6.50;4.30;;;;;;;17.30;87.27;97359.61;106843;1275;22766;-76
2023/07/20 05:55:40;;;;;;;7.70;5.00;;;;;;;17.67;86.97;97371.05;106864;1275;24187;-77
2023/07/20 05:58:08;;;;;;;8.40;5.40;;;;;;;17.67;85.41;97382.65;107217;1275;22528;-77
2023/07/20 06:00:36;;;;;;;19.10;5.50;;;;;;;17.54;85.02;97391.10;107087;1275;23896;-78
2023/07/20 06:03:04;;;;;;;9.10;5.40;;;;;;;17.45;84.52;97395.48;107079;1275;22538;-77
2023/07/20 06:05:32;;;;;;;9.60;5.00;;;;;;;17.38;84.77;97393.77;106947;1256;22511;-77
2023/07/20 06:08:01;;;;;;;7.70;5.60;;;;;;;17.38;85.08;97394.02;107050;1275;22784;-76
2023/07/20 06:10:29;;;;;;;12.50;6.60;;;;;;;17.34;84.76;97396.42;106945;1275;22551;-77
2023/07/20 06:12:57;;;;;;;9.10;6.10;;;;;;;17.33;84.39;97399.65;106931;1275;22633;-77
2023/07/20 06:15:32;;;;;;;12.30;6.50;;;;;;;17.29;83.56;97402.84;107246;1275;24154;-77
2023/07/20 06:18:00;;;;;;;8.80;6.30;;;;;;;17.22;83.66;97405.42;107328;1275;22933;-76
2023/07/20 06:20:29;;;;;;;10.40;6.40;;;;;;;17.19;84.08;97399.44;106958;1275;22599;-76
2023/07/20 06:22:57;;;;;;;8.80;6.90;;;;;;;17.28;84.16;97394.64;106847;1271;22541;-77
2023/07/20 06:25:25;;;;;;;8.80;7.60;;;;;;;17.42;84.15;97393.56;107280;1275;22563;-77
2023/07/20 06:27:55;;;;;;;12.30;7.70;;;;;;;17.48;83.61;97396.96;106876;1276;25350;-76
2023/07/20 06:30:24;;;;;;;11.30;7.90;;;;;;;17.38;83.46;97395.81;107287;1275;24388;-76
2023/07/20 06:32:52;;;;;;;13.30;8.10;;;;;;;17.35;83.69;97394.27;106887;1275;22540;-75
2023/07/20 06:35:20;;;;;;;9.80;7.00;;;;;;;17.34;83.67;97389.96;106922;1275;26497;-76
2023/07/20 06:37:48;;;;;;;13.50;7.00;;;;;;;17.40;83.76;97393.21;106982;1275;22534;-76
2023/07/20 06:40:17;;;;;;;15.10;8.20;;;;;;;17.55;83.80;97397.25;107628;1275;22645;-76
2023/07/20 06:42:48;;;;;;;12.40;7.10;;;;;;;17.72;83.77;97399.11;107662;1275;22778;-76
2023/07/20 06:45:19;;;;;;;10.00;6.40;;;;;;;17.87;83.48;97397.27;107014;1275;22554;-75
2023/07/20 06:47:46;;;;;;;9.50;7.00;;;;;;;17.96;82.70;97394.09;107058;1275;22525;-75
2023/07/20 06:50:15;;;;;;;11.10;6.90;;;;;;;18.01;82.27;97391.38;106996;1275;24291;-75
2023/07/20 06:52:47;;;;;;;10.00;6.50;;;;;;;18.00;81.88;97398.92;107025;1272;23827;-75
2023/07/20 06:55:16;;;;;;;10.80;6.50;;;;;;;18.01;81.51;97396.75;107221;1253;24239;-75
2023/07/20 06:57:51;;;;;;;10.40;6.20;;;;;;;18.09;81.79;97395.52;106970;1275;22517;-74
2023/07/20 07:00:19;;;;;;;8.50;4.90;;;;;;;18.24;82.09;97394.25;107035;1275;23155;-75
2023/07/20 07:02:47;;;;;;;8.40;5.50;;;;;;;18.32;81.08;97392.35;106915;1274;25328;-77
2023/07/20 07:05:18;;;;;;;7.80;4.90;;;;;;;18.38;80.88;97380.01;107293;1275;22535;-77
2023/07/20 07:07:48;;;;;;;9.90;5.20;;;;;;;18.47;80.05;97371.58;106874;1275;22658;-78
2023/07/20 07:10:18;;;;;;;9.90;5.70;;;;;;;18.55;79.85;97378.73;106963;1275;22542;-78
2023/07/20 07:12:46;;;;;;;10.00;5.50;;;;;;;18.67;79.49;97387.04;107392;1274;22535;-78
2023/07/20 07:15:15;;;;;;;7.60;4.70;;;;;;;18.70;79.70;97382.82;107541;1275;22794;-78
2023/07/20 07:17:44;;;;;;;7.50;5.20;;;;;;;18.76;79.63;97387.85;107314;1275;22550;-78
2023/07/20 07:20:12;;;;;;;8.60;5.00;;;;;;;18.76;78.90;97384.58;107307;1275;22778;-78
2023/07/20 07:22:51;;;;;;;7.70;5.20;;;;;;;18.70;79.12;97385.14;106859;1272;22543;-80
2023/07/20 07:25:19;;;;;;;7.80;5.20;;;;;;;18.78;79.24;97382.64;107068;1275;24109;-79
2023/07/20 07:27:52;;;;;;;7.70;4.90;;;;;;;19.01;78.92;97385.66;107312;1275;22590;-78
2023/07/20 07:30:20;;;;;;;10.50;4.50;;;;;;;19.19;77.54;97389.84;106870;1275;22642;-79
2023/07/20 07:32:49;;;;;;;7.00;4.80;;;;;;;19.20;78.14;97391.58;107047;1275;22534;-79
2023/07/20 07:35:17;;;;;;;13.20;5.10;;;;;;;19.23;77.98;97385.93;107330;1275;22548;-80
2023/07/20 07:37:46;;;;;;;7.70;4.90;;;;;;;19.22;77.48;97394.80;107308;1275;23042;-79
2023/07/20 07:40:34;;;;;;;6.30;4.10;;;;;;;19.15;77.15;97401.48;107336;1275;23291;-80
2023/07/20 07:43:03;;;;;;;7.50;4.90;;;;;;;19.07;77.04;97407.06;107315;1275;22760;-79
2023/07/20 07:45:36;;;;;;;5.30;4.10;;;;;;;18.97;76.54;97411.75;107512;1275;25399;-79
2023/07/20 07:48:08;;;;;;;6.50;4.70;;;;;;;18.83;76.51;97418.23;107384;1274;22586;-79
2023/07/20 07:50:36;;;;;;;5.70;4.20;;;;;;;18.77;76.70;97414.45;107388;1275;25435;-77
2023/07/20 07:53:04;;;;;;;8.10;4.50;;;;;;;18.84;76.94;97416.05;106886;1275;22533;-78
2023/07/20 07:55:32;;;;;;;7.70;4.90;;;;;;;18.87;77.06;97409.55;107287;1275;23907;-79
2023/07/20 07:58:00;;;;;;;8.40;4.50;;;;;;;19.05;76.94;97409.14;106988;1266;22656;-79
2023/07/20 08:00:28;;;;;;;6.20;4.40;;;;;;;19.23;75.63;97414.02;107325;1275;22521;-79
2023/07/20 08:02:55;;;;;;;4.70;3.60;;;;;;;19.28;75.35;97411.60;107386;1275;22574;-79
2023/07/20 08:05:24;;;;;;;6.50;4.40;;;;;;;19.32;74.35;97412.28;107313;1275;22997;-82
2023/07/20 08:07:52;;;;;;;8.70;4.30;;;;;;;19.31;73.75;97413.44;107492;1260;22570;-77
2023/07/20 08:10:21;;;;;;;5.50;4.30;;;;;;;19.28;73.67;97414.88;106922;1275;22522;-76
2023/07/20 08:12:49;;;;;;;5.20;3.90;;;;;;;19.24;73.78;97417.93;106922;1275;24211;-76
2023/07/20 08:15:17;;;;;;;5.50;3.70;;;;;;;19.28;73.07;97421.42;107362;1276;22544;-78
2023/07/20 08:17:45;;;;;;;5.70;3.50;;;;;;;19.32;73.30;97419.08;107372;1275;22650;-78
2023/07/20 08:20:16;;;;;;;6.00;4.00;;;;;;;19.35;73.91;97423.00;107298;1275;22605;-78
2023/07/20 08:22:44;;;;;;;5.00;4.10;;;;;;;19.38;73.43;97425.08;107608;1275;22616;-77
2023/07/20 08:25:15;;;;;;;8.20;4.10;;;;;;;19.48;73.29;97424.15;107829;1260;22542;-77
2023/07/20 08:27:46;;;;;;;5.90;3.70;;;;;;;19.66;72.27;97431.36;107403;1275;22634;-79
2023/07/20 08:30:14;;;;;;;4.80;3.10;;;;;;;19.79;72.19;97426.85;107318;1275;22542;-79
2023/07/20 08:32:42;;;;;;;6.70;4.00;;;;;;;19.97;72.15;97427.55;107305;1275;22540;-78
2023/07/20 08:35:10;;;;;;;6.50;3.60;;;;;;;19.99;72.06;97424.14;107307;1275;22533;-78
2023/07/20 08:37:38;;;;;;;6.60;3.50;;;;;;;19.99;72.05;97433.20;107358;1275;25496;-78
2023/07/20 08:40:09;;;;;;;4.50;3.30;;;;;;;20.09;71.29;97440.13;107263;1275;25385;-78
2023/07/20 08:42:38;;;;;;;6.80;3.60;;;;;;;20.20;70.75;97435.72;107295;1275;24645;-79
2023/07/20 08:45:09;;;;;;;6.30;3.50;;;;;;;20.32;70.47;97440.30;107361;1275;24374;-78
2023/07/20 08:47:37;;;;;;;3.60;2.80;;;;;;;20.29;70.38;97441.21;107299;1275;22606;-79
2023/07/20 08:50:08;;;;;;;4.80;3.40;;;;;;;20.16;69.85;97437.16;107417;1275;22545;-78
2023/07/20 08:52:36;;;;;;;6.00;3.80;;;;;;;20.07;69.92;97437.75;107215;1275;23059;-79
2023/07/20 08:55:05;;;;;;;5.10;3.20;;;;;;;19.99;69.30;97443.05;107306;1269;23280;-81
2023/07/20 08:57:33;;;;;;;5.10;3.20;;;;;;;20.00;69.57;97443.07;107388;1275;22548;-80
2023/07/20 09:00:07;;;;;;;4.80;2.80;;;;;;;20.08;69.51;97445.58;107496;1275;22577;-79
2023/07/20 09:02:39;;;;;;;7.30;3.20;;;;;;;20.31;68.83;97447.57;107515;1269;25614;-79
2023/07/20 09:05:13;;;;;;;7.50;3.20;;;;;;;20.48;66.89;97446.52;107583;1270;23934;-80
2023/07/20 09:07:42;;;;;;;5.40;3.20;;;;;;;20.55;67.29;97443.70;107513;1267;22616;-80
2023/07/20 09:10:11;;;;;;;3.20;2.60;;;;;;;20.55;67.45;97444.33;107345;1263;22962;-79
2023/07/20 09:12:41;;;;;;;5.10;2.90;;;;;;;20.53;66.39;97449.46;107283;1269;22753;-80
2023/07/20 09:15:11;;;;;;;4.10;3.10;;;;;;;20.39;65.27;97455.25;107287;1257;23023;-80
2023/07/20 09:17:45;;;;;;;7.30;3.10;;;;;;;20.38;64.90;97450.63;107395;1275;22551;-78
2023/07/20 09:20:15;;;;;;;6.20;3.30;;;;;;;20.40;64.55;97451.89;107311;1275;22690;-79
2023/07/20 09:22:43;;;;;;;4.90;2.90;;;;;;;20.36;63.98;97448.02;107264;1275;23238;-78
2023/07/20 09:25:16;;;;;;;4.30;2.90;;;;;;;20.23;64.43;97447.48;107266;1275;22859;-78
2023/07/20 09:27:46;;;;;;;4.10;2.80;;;;;;;20.19;64.93;97445.17;107213;1265;24309;-79
2023/07/20 09:30:16;;;;;;;3.50;2.50;;;;;;;20.21;64.80;97448.93;107226;1275;25389;-78
2023/07/20 09:32:50;;;;;;;5.90;3.00;;;;;;;20.20;64.95;97450.65;107288;1275;23162;-78
2023/07/20 09:35:22;;;;;;;9.50;3.30;;;;;;;20.09;65.42;97450.67;107358;1263;22537;-78
2023/07/20 09:38:00;;;;;;;9.10;4.10;;;;;;;20.15;65.99;97447.08;107305;1275;22599;-79
2023/07/20 09:40:38;;;;;;;4.00;2.80;;;;;;;20.32;66.39;97449.22;107288;1275;22618;-79
2023/07/20 09:43:10;;;;;;;4.50;3.30;;;;;;;20.52;66.13;97450.95;107335;1275;22529;-79
2023/07/20 09:45:42;;;;;;;4.90;3.20;;;;;;;20.66;65.65;97453.67;107356;1275;22520;-79
2023/07/20 09:48:13;;;;;;;5.30;3.50;;;;;;;20.81;65.14;97452.49;107278;1275;22590;-78
2023/07/20 09:50:53;;;;;;;7.80;3.50;;;;;;;20.94;64.47;97451.13;107198;1275;23925;-78
2023/07/20 09:53:25;;;;;;;8.30;3.90;;;;;;;21.14;63.80;97450.03;107160;1269;22750;-80
2023/07/20 09:55:54;;;;;;;7.70;4.20;;;;;;;21.26;62.48;97450.52;107343;1275;22554;-78
2023/07/20 09:58:22;;;;;;;6.50;3.70;;;;;;;21.15;62.30;97447.55;107300;1275;24222;-79
2023/07/20 10:00:51;;;;;;;6.50;4.10;;;;;;;20.98;62.57;97447.25;107274;1275;22651;-77
2023/07/20 10:03:26;;;;;;;4.80;3.60;;;;;;;20.75;63.30;97453.14;106895;1275;23923;-78
2023/07/20 10:06:07;;;;;;;6.70;4.60;;;;;;;20.58;63.63;97453.59;107415;1275;22803;-78
2023/07/20 10:08:40;;;;;;;5.60;4.50;;;;;;;20.44;64.38;97449.66;107382;1269;22643;-79
2023/07/20 10:11:14;;;;;;;7.90;4.40;;;;;;;20.52;64.88;97448.99;107323;1275;22677;-79
2023/07/20 10:13:43;;;;;;;8.90;4.70;;;;;;;20.73;63.95;97442.95;107294;1272;24202;-79
2023/07/20 10:16:28;;;;;;;6.10;4.90;;;;;;;21.07;63.98;97443.26;107339;1275;23352;-77
2023/07/20 10:19:06;;;;;;;9.10;4.70;;;;;;;21.28;63.21;97438.96;107291;1275;22627;-78
2023/07/20 10:21:56;;;;;;;8.80;5.00;;;;;;;21.27;61.80;97444.11;107362;1275;22524;-79
2023/07/20 10:24:27;;;;;;;8.20;4.70;;;;;;;21.04;61.91;97441.98;107296;1275;25475;-78
2023/07/20 10:26:56;;;;;;;6.90;5.00;;;;;;;20.82;62.86;97439.91;107322;1275;22552;-78
2023/07/20 10:29:25;;;;;;;8.10;5.10;;;;;;;20.75;63.58;97439.20;107348;1275;22560;-78
2023/07/20 10:31:54;;;;;;;7.80;4.60;;;;;;;20.85;64.06;97433.98;107344;1275;24350;-78
2023/07/20 10:34:23;;;;;;;8.70;5.00;;;;;;;21.03;63.83;97435.47;107394;1275;22537;-78
2023/07/20 10:36:54;;;;;;;7.20;5.50;;;;;;;21.27;63.73;97431.83;107333;1275;22597;-78
2023/07/20 10:39:24;;;;;;;7.00;4.60;;;;;;;21.58;62.50;97429.46;107330;1275;22531;-77
2023/07/20 10:42:09;;;;;;;9.80;5.40;;;;;;;21.81;60.60;97431.86;107195;1275;24066;-77
2023/07/20 10:44:38;;;;;;;7.20;5.00;;;;;;;21.92;60.44;97437.40;106940;1275;22610;-78
2023/07/20 10:47:11;;;;;;;7.40;5.20;;;;;;;21.75;61.23;97439.45;107369;1275;22522;-77
2023/07/20 10:50:00;;;;;;;11.20;6.30;;;;;;;21.55;61.16;97441.66;107387;1275;22580;-78
2023/07/20 10:52:40;;;;;;;10.80;6.70;;;;;;;21.28;61.89;97438.50;107301;1276;24346;-78
2023/07/20 10:55:16;;;;;;;8.20;6.00;;;;;;;21.12;62.85;97439.08;107332;1275;22530;-77
2023/07/20 10:58:09;;;;;;;8.70;6.30;;;;;;;21.11;62.48;97436.24;107289;1276;22528;-77
2023/07/20 11:00:55;;;;;;;7.10;5.80;;;;;;;21.16;62.09;97431.98;107337;1273;22553;-78
2023/07/20 11:03:31;;;;;;;10.00;7.00;;;;;;;21.18;63.60;97436.30;107329;1276;22639;-79
2023/07/20 11:06:34;;;;;;;9.30;6.00;;;;;;;21.17;64.82;97445.45;107262;1275;22558;-79
2023/07/20 11:09:06;;;;;;;10.30;6.50;;;;;;;21.28;65.09;97443.17;106960;1281;24262;-78
2023/07/20 11:11:38;;;;;;;;;;;;;;;21.34;65.00;97438.62;107022;1281;22586;-77
2023/07/20 11:14:09;;;;;;;11.00;7.20;;;;;;;21.47;65.58;97440.38;106919;1274;22658;-78
2023/07/20 11:16:43;;;;;;;10.10;7.30;;;;;;;21.64;65.03;97438.76;106943;1281;24297;-78
2023/07/20 11:19:16;;;;;;;9.20;6.70;;;;;;;21.67;64.73;97436.88;106883;1281;24199;-78
2023/07/20 11:22:07;;;;;;;8.10;6.30;;;;;;;21.72;64.27;97438.56;106824;1281;22616;-78
2023/07/20 11:24:40;;;;;;;9.70;6.40;;;;;;;21.99;64.05;97432.19;106826;1281;22814;-78
2023/07/20 11:27:08;;;;;;;17.30;7.40;;;;;;;22.25;62.74;97431.77;106955;1280;22833;-78
2023/07/20 11:29:37;;;;;;;10.40;6.90;;;;;;;22.42;62.38;97425.62;106900;1281;25393;-79
2023/07/20 11:32:05;;;;;;;7.90;6.40;;;;;;;22.58;61.14;97422.13;106901;1281;22636;-79
2023/07/20 11:34:35;;;;;;;8.00;6.20;;;;;;;22.76;59.94;97420.59;106930;1281;23051;-79
2023/07/20 11:37:05;;;;;;;10.10;6.80;;;;;;;22.79;58.99;97412.20;106847;1280;25296;-80